< < Back
Terminal Aerodrome Forecast


Current Version              Previous Versions:   1  2  3  4  5  6  7  8  9  

Terminal Aerodrome Forecast

571
FTUS42 KTAE 201700
TAFVLD
TAF
KVLD 201720Z 2018/2118 06005KT P6SM OVC090
     FM210100 05005KT P6SM OVC020
     FM210700 06007KT P6SM OVC008=



Latest METAR

168
SAUS70 KWBC 210600 RRO
MTRVLD
METAR KVLD 210553Z AUTO 04006KT 10SM BKN009 OVC044 13/11 A3013 RMK AO2
SLP212 T01280111 10139 20128 55006


USA.gov is the U.S. government's official web portal to all federal, state and local government web resources and services.